createdAt,value
2022-11-05T00:00:17.127Z,68.73
2022-11-05T00:03:03.020Z,68.61
2022-11-05T00:05:49.891Z,68.88
2022-11-05T00:08:48.414Z,67.38
2022-11-05T00:11:18.305Z,67.75
2022-11-05T00:14:04.596Z,67.44
2022-11-05T00:16:44.777Z,68.63
2022-11-05T00:19:13.580Z,68.72
2022-11-05T00:22:04.651Z,68.44
2022-11-05T00:24:51.715Z,68.01
2022-11-05T00:27:19.968Z,67.63
2022-11-05T00:29:47.972Z,68.24
2022-11-05T00:32:16.138Z,67.69
2022-11-05T00:34:45.364Z,67.79
2022-11-05T00:37:16.658Z,67.54
2022-11-05T00:39:46.152Z,67.33
2022-11-05T00:42:31.911Z,67.61
2022-11-05T00:45:02.989Z,67.22
2022-11-05T00:47:50.750Z,67.23
2022-11-05T00:50:19.673Z,67.18
2022-11-05T00:52:57.645Z,66.83
2022-11-05T00:55:33.468Z,68.06
2022-11-05T00:58:02.934Z,67.97
2022-11-05T01:00:32.680Z,67.32
2022-11-05T01:03:02.419Z,67.73
2022-11-05T01:05:32.306Z,67.46
2022-11-05T01:08:00.725Z,67.48
2022-11-05T01:10:30.200Z,67.52
2022-11-05T01:12:59.115Z,67.22
2022-11-05T01:15:27.404Z,67.03
2022-11-05T01:17:55.551Z,68.17
2022-11-05T01:20:23.858Z,67.33
2022-11-05T01:22:51.988Z,67.91
2022-11-05T01:25:20.299Z,67.98
2022-11-05T01:27:49.731Z,67.68
2022-11-05T01:30:18.047Z,68.62
2022-11-05T01:32:46.233Z,68.26
2022-11-05T01:35:16.765Z,68.63
2022-11-05T01:37:45.116Z,68.74
2022-11-05T01:40:15.851Z,69.11
2022-11-05T01:42:44.534Z,68.13
2022-11-05T01:45:17.208Z,68.66
2022-11-05T01:48:02.629Z,68.13
2022-11-05T01:50:49.341Z,68.06
2022-11-05T01:53:25.241Z,68.75
2022-11-05T01:55:58.910Z,68.29
2022-11-05T01:58:32.675Z,67.22
2022-11-05T02:01:02.627Z,68.42
2022-11-05T02:03:31.161Z,69.08
2022-11-05T02:06:02.315Z,68.09
2022-11-05T02:08:46.303Z,68.11
2022-11-05T02:14:53.731Z,66.96
2022-11-05T02:17:34.598Z,67.57
2022-11-05T02:20:18.895Z,67.25
2022-11-05T02:23:12.883Z,67.63
2022-11-05T02:26:32.852Z,68.25
2022-11-05T02:29:41.925Z,67.34
2022-11-05T02:32:21.194Z,68.62
2022-11-05T02:34:56.734Z,67.96
2022-11-05T02:37:38.374Z,68.39
2022-11-05T02:40:14.674Z,67.98
2022-11-05T02:42:47.184Z,68.91
2022-11-05T02:45:26.961Z,68.35
2022-11-05T02:48:01.347Z,69.11
2022-11-05T02:50:35.108Z,69.15
2022-11-05T02:53:10.232Z,68.87
2022-11-05T02:55:43.092Z,69.08
2022-11-05T02:58:11.226Z,68.61
2022-11-05T03:00:50.115Z,69.73
2022-11-05T03:03:29.780Z,69.38
2022-11-05T03:06:18.723Z,68.41
2022-11-05T03:09:24.255Z,69.46
2022-11-05T03:12:01.191Z,68.83
2022-11-05T03:14:41.467Z,68.02
2022-11-05T03:17:20.059Z,68.84
2022-11-05T03:19:54.851Z,68.82
2022-11-05T03:22:25.513Z,68.58
2022-11-05T03:24:59.315Z,68.77
2022-11-05T03:27:31.395Z,68.48
2022-11-05T03:30:03.487Z,68.70
2022-11-05T03:32:35.051Z,68.71
2022-11-05T03:35:09.647Z,69.63
2022-11-05T03:37:41.023Z,69.77
2022-11-05T03:40:13.005Z,68.18
2022-11-05T03:42:46.336Z,68.52
2022-11-05T03:45:20.106Z,68.30
2022-11-05T03:47:51.537Z,68.42
2022-11-05T03:50:24.741Z,68.35
2022-11-05T03:52:55.589Z,68.52
2022-11-05T03:55:30.371Z,67.88
2022-11-05T03:58:00.459Z,67.78
2022-11-05T04:00:28.539Z,68.50
2022-11-05T04:02:56.981Z,68.52
2022-11-05T04:05:26.531Z,68.12
2022-11-05T04:08:14.501Z,68.12
2022-11-05T04:11:02.489Z,68.23
2022-11-05T04:13:30.652Z,68.79
2022-11-05T04:16:19.565Z,68.86
2022-11-05T04:18:48.305Z,68.53
2022-11-05T04:21:35.290Z,68.80
2022-11-05T04:24:09.518Z,69.24
2022-11-05T04:26:38.979Z,68.62
2022-11-05T04:29:24.966Z,67.20
2022-11-05T04:31:53.838Z,67.83
2022-11-05T04:34:23.022Z,68.54
2022-11-05T04:36:54.175Z,68.08
2022-11-05T04:39:22.633Z,68.31
2022-11-05T04:41:50.579Z,68.08
2022-11-05T04:44:18.705Z,67.75
2022-11-05T04:46:46.691Z,67.77
2022-11-05T04:49:14.876Z,68.21
2022-11-05T04:51:43.185Z,69.05
2022-11-05T04:54:12.556Z,68.22
2022-11-05T04:56:40.508Z,68.15
2022-11-05T04:59:08.530Z,69.19
2022-11-05T05:01:36.616Z,69.47
2022-11-05T05:04:04.949Z,68.40
2022-11-05T05:06:32.920Z,68.10
2022-11-05T05:09:01.248Z,68.42
2022-11-05T05:11:30.788Z,68.39
2022-11-05T05:13:58.802Z,68.74
2022-11-05T05:16:28.300Z,68.89
2022-11-05T05:18:56.430Z,68.47
2022-11-05T05:21:39.249Z,68.39
2022-11-05T05:24:09.762Z,68.25
2022-11-05T05:26:41.073Z,67.56
2022-11-05T05:29:10.414Z,67.39
2022-11-05T05:31:39.108Z,67.24
2022-11-05T05:34:08.737Z,68.11
2022-11-05T05:36:36.653Z,67.79
2022-11-05T05:39:06.187Z,67.26
2022-11-05T05:41:35.008Z,68.38
2022-11-05T05:44:05.861Z,67.69
2022-11-05T05:46:33.971Z,67.71
2022-11-05T05:49:03.035Z,66.97
2022-11-05T05:51:32.485Z,67.39
2022-11-05T05:54:00.507Z,68.22
2022-11-05T05:56:28.693Z,68.29
2022-11-05T05:58:57.061Z,67.80
2022-11-05T06:01:26.610Z,67.86
2022-11-05T06:03:54.796Z,67.07
2022-11-05T06:06:22.792Z,66.10
2022-11-05T06:08:50.847Z,65.95
2022-11-05T06:11:18.942Z,65.62
2022-11-05T06:13:46.975Z,65.92
2022-11-05T06:16:15.124Z,65.90
2022-11-05T06:18:44.567Z,66.19
2022-11-05T06:21:14.684Z,66.18
2022-11-05T06:23:45.118Z,66.48
2022-11-05T06:26:15.602Z,66.83
2022-11-05T06:28:44.205Z,66.31
2022-11-05T06:31:14.326Z,67.71
2022-11-05T06:33:42.526Z,66.91
2022-11-05T06:36:15.716Z,66.66
2022-11-05T06:38:43.872Z,65.78
2022-11-05T06:41:11.833Z,66.55
2022-11-05T06:43:40.109Z,65.53
2022-11-05T06:46:08.750Z,65.58
2022-11-05T06:48:36.718Z,66.15
2022-11-05T06:51:05.614Z,66.45
2022-11-05T06:53:36.175Z,66.69
2022-11-05T06:56:05.537Z,66.64
2022-11-05T06:58:34.159Z,66.08
2022-11-05T07:01:03.332Z,66.55
2022-11-05T07:03:31.531Z,66.27
2022-11-05T07:06:00.915Z,66.09
2022-11-05T07:08:32.024Z,65.28
2022-11-05T07:11:01.899Z,65.33
2022-11-05T07:13:29.875Z,64.55
2022-11-05T07:15:57.986Z,64.89
2022-11-05T07:18:26.191Z,64.75
2022-11-05T07:20:54.262Z,64.92
2022-11-05T07:23:22.407Z,65.11
2022-11-05T07:25:50.401Z,65.52
2022-11-05T07:28:20.416Z,65.20
2022-11-05T07:30:49.293Z,65.04
2022-11-05T07:33:17.304Z,64.47
2022-11-05T07:35:45.412Z,65.74
2022-11-05T07:38:13.465Z,65.28
2022-11-05T07:40:41.614Z,65.84
2022-11-05T07:43:10.001Z,64.88
2022-11-05T07:45:39.979Z,65.09
2022-11-05T07:48:08.480Z,65.01
2022-11-05T07:50:38.183Z,64.04
2022-11-05T07:53:08.024Z,65.44
2022-11-05T07:55:36.633Z,64.47
2022-11-05T07:58:05.014Z,64.10
2022-11-05T08:00:34.293Z,64.48
2022-11-05T08:03:08.498Z,64.41
2022-11-05T08:05:39.703Z,63.65
2022-11-05T08:08:09.491Z,63.75
2022-11-05T08:10:38.857Z,62.92
2022-11-05T08:13:08.666Z,62.58
2022-11-05T08:15:37.197Z,62.60
2022-11-05T08:18:08.499Z,62.86
2022-11-05T08:20:38.488Z,62.00
2022-11-05T08:23:06.772Z,60.07
2022-11-05T08:25:34.852Z,59.57
2022-11-05T08:28:05.211Z,59.87
2022-11-05T08:30:33.978Z,60.33
2022-11-05T08:33:04.775Z,60.22
2022-11-05T08:35:35.576Z,59.90
2022-11-05T08:38:06.387Z,60.66
2022-11-05T08:40:37.067Z,55.09
2022-11-05T08:43:07.510Z,55.55
2022-11-05T08:45:38.514Z,57.81
2022-11-05T08:48:08.841Z,57.58
2022-11-05T08:50:40.541Z,58.35
2022-11-05T08:53:10.605Z,58.92
2022-11-05T08:55:39.185Z,57.78
2022-11-05T08:58:09.103Z,57.12
2022-11-05T09:00:37.934Z,55.79
2022-11-05T09:03:08.335Z,53.32
2022-11-05T09:05:39.286Z,56.64
2022-11-05T09:08:10.388Z,57.77
2022-11-05T09:10:39.061Z,58.17
2022-11-05T09:13:07.136Z,59.99
2022-11-05T09:15:36.546Z,59.20
2022-11-05T09:18:05.992Z,60.66
2022-11-05T09:20:36.704Z,57.39
2022-11-05T09:23:04.787Z,50.80
2022-11-05T09:25:34.730Z,45.76
2022-11-05T09:28:15.909Z,48.31
2022-11-05T09:30:46.885Z,51.09
2022-11-05T09:33:15.298Z,53.72
2022-11-05T09:35:43.728Z,53.39
2022-11-05T09:38:11.691Z,55.06
2022-11-05T09:40:48.259Z,58.71
2022-11-05T09:43:20.311Z,58.36
2022-11-05T09:45:52.892Z,58.97
2022-11-05T09:48:25.974Z,58.99
2022-11-05T09:50:55.146Z,59.25
2022-11-05T09:53:24.952Z,60.60
2022-11-05T09:55:57.348Z,60.30
2022-11-05T09:58:37.242Z,59.62
2022-11-05T10:01:07.675Z,57.58
2022-11-05T10:03:43.853Z,58.97
2022-11-05T10:06:18.499Z,59.40
2022-11-05T10:08:50.384Z,56.84
2022-11-05T10:11:26.056Z,51.76
2022-11-05T10:14:00.255Z,55.07
2022-11-05T10:16:32.084Z,55.41
2022-11-05T10:19:07.295Z,55.64
2022-11-05T10:22:04.411Z,54.66
2022-11-05T10:24:24.752Z,53.72
2022-11-05T10:26:55.697Z,54.97
2022-11-05T10:29:29.276Z,58.05
2022-11-05T10:31:58.981Z,59.37
2022-11-05T10:34:31.375Z,57.58
2022-11-05T10:36:59.632Z,52.83
2022-11-05T10:39:28.719Z,49.01
2022-11-05T10:42:10.011Z,49.15
2022-11-05T10:44:45.196Z,49.82
2022-11-05T10:47:36.307Z,48.68
2022-11-05T10:50:10.726Z,52.33
2022-11-05T10:52:41.253Z,56.72
2022-11-05T10:55:18.129Z,57.48
2022-11-05T10:57:49.434Z,57.94
2022-11-05T11:00:31.551Z,59.02
2022-11-05T11:03:01.683Z,57.29
2022-11-05T11:05:32.898Z,53.18
2022-11-05T11:08:22.306Z,48.22
2022-11-05T11:10:53.019Z,47.75
2022-11-05T11:13:24.287Z,50.15
2022-11-05T11:15:52.805Z,53.37
2022-11-05T11:18:35.878Z,54.76
2022-11-05T11:21:13.286Z,55.57
2022-11-05T11:23:42.943Z,56.74
2022-11-05T11:26:12.832Z,57.43
2022-11-05T11:28:47.149Z,57.81
2022-11-05T11:31:18.350Z,58.42
2022-11-05T11:33:49.225Z,58.70
2022-11-05T11:36:18.980Z,58.99
2022-11-05T11:38:47.484Z,59.29
2022-11-05T11:41:26.421Z,58.67
2022-11-05T11:43:58.495Z,55.79
2022-11-05T11:46:27.276Z,52.79
2022-11-05T11:48:55.295Z,52.55
2022-11-05T11:51:34.246Z,52.36
2022-11-05T11:54:03.056Z,51.27
2022-11-05T11:56:32.565Z,51.25
2022-11-05T11:59:12.921Z,49.73
2022-11-05T12:02:08.435Z,51.33
2022-11-05T12:04:52.220Z,50.63
2022-11-05T12:07:31.670Z,48.51
2022-11-05T12:10:12.758Z,48.78
2022-11-05T12:12:48.094Z,47.30
2022-11-05T12:15:31.227Z,45.41
2022-11-05T12:18:03.707Z,48.37
2022-11-05T12:20:48.110Z,47.72
2022-11-05T12:23:48.847Z,49.86
2022-11-05T12:26:28.542Z,50.81
2022-11-05T12:29:18.704Z,50.15
2022-11-05T12:32:00.044Z,49.59
2022-11-05T12:34:43.806Z,50.61
2022-11-05T12:37:24.037Z,50.43
2022-11-05T12:40:15.835Z,50.74
2022-11-05T12:42:57.799Z,51.05
2022-11-05T12:45:40.245Z,50.33
2022-11-05T12:48:30.360Z,52.43
2022-11-05T12:51:12.630Z,52.67
2022-11-05T12:53:54.038Z,53.20
2022-11-05T12:56:28.511Z,54.74
2022-11-05T12:59:02.066Z,53.71
2022-11-05T13:01:37.826Z,53.35
2022-11-05T13:04:15.699Z,51.65
2022-11-05T13:06:49.685Z,50.23
2022-11-05T13:09:21.297Z,48.78
2022-11-05T13:11:54.696Z,48.11
2022-11-05T13:14:27.888Z,46.69
2022-11-05T13:17:01.231Z,45.50
2022-11-05T13:19:35.981Z,46.49
2022-11-05T13:22:09.771Z,49.31
2022-11-05T13:24:41.465Z,48.84
2022-11-05T13:27:31.861Z,49.64
2022-11-05T13:30:05.498Z,51.94
2022-11-05T13:32:37.365Z,51.91
2022-11-05T13:35:15.211Z,51.02
2022-11-05T13:38:03.916Z,52.31
2022-11-05T13:40:45.914Z,51.94
2022-11-05T13:43:32.807Z,52.84
2022-11-05T13:46:16.731Z,54.33
2022-11-05T13:49:17.192Z,54.83
2022-11-05T13:52:03.808Z,55.92
2022-11-05T13:55:19.061Z,54.28
2022-11-05T13:58:09.397Z,55.69
2022-11-05T14:00:42.408Z,55.90
2022-11-05T14:03:19.352Z,55.20
2022-11-05T14:05:55.538Z,55.84
2022-11-05T14:08:29.057Z,55.88
2022-11-05T14:11:04.287Z,55.79
2022-11-05T14:13:36.227Z,56.49
2022-11-05T14:16:07.984Z,57.46
2022-11-05T14:18:40.366Z,56.74
2022-11-05T14:21:31.714Z,56.58
2022-11-05T14:24:20.232Z,56.87
2022-11-05T14:27:32.952Z,57.16
2022-11-05T14:30:01.885Z,57.01
2022-11-05T14:32:50.012Z,56.44
2022-11-05T14:35:37.777Z,56.55
2022-11-05T14:38:07.480Z,56.50
2022-11-05T14:40:39.666Z,56.54
2022-11-05T14:43:22.505Z,56.66
2022-11-05T14:45:56.268Z,57.55
2022-11-05T14:48:32.845Z,57.81
2022-11-05T14:51:00.992Z,58.50
2022-11-05T14:53:34.757Z,58.70
2022-11-05T14:56:08.083Z,58.51
2022-11-05T14:58:38.175Z,58.73
2022-11-05T15:01:08.297Z,59.31
2022-11-05T15:04:06.703Z,59.58
2022-11-05T15:06:36.765Z,59.53
2022-11-05T15:09:24.027Z,59.55
2022-11-05T15:12:09.121Z,60.07
2022-11-05T15:14:42.409Z,60.15
2022-11-05T15:17:19.550Z,60.03
2022-11-05T15:19:48.657Z,59.80
2022-11-05T15:22:30.334Z,59.84
2022-11-05T15:24:58.687Z,60.06
2022-11-05T15:27:58.151Z,62.51
2022-11-05T15:30:27.260Z,62.51
2022-11-05T15:32:55.382Z,62.21
2022-11-05T15:35:27.017Z,60.86
2022-11-05T15:38:01.800Z,59.60
2022-11-05T15:40:33.479Z,59.28
2022-11-05T15:43:19.486Z,59.26
2022-11-05T15:46:05.602Z,60.58
2022-11-05T15:48:34.577Z,60.89
2022-11-05T15:51:03.006Z,61.31
2022-11-05T15:53:56.529Z,61.10
2022-11-05T15:56:26.045Z,61.40
2022-11-05T15:58:59.832Z,61.17
2022-11-05T16:01:33.370Z,61.84
2022-11-05T16:04:09.767Z,61.53
2022-11-05T16:06:40.869Z,61.59
2022-11-05T16:09:09.171Z,61.43
2022-11-05T16:11:37.738Z,62.17
2022-11-05T16:14:18.533Z,61.86
2022-11-05T16:16:47.454Z,61.70
2022-11-05T16:19:40.850Z,61.80
2022-11-05T16:22:09.777Z,62.21
2022-11-05T16:24:37.892Z,61.71
2022-11-05T16:27:07.099Z,62.08
2022-11-05T16:29:38.640Z,61.97
2022-11-05T16:32:17.464Z,61.88
2022-11-05T16:34:49.371Z,61.72
2022-11-05T16:37:21.544Z,62.00
2022-11-05T16:39:49.659Z,62.94
2022-11-05T16:42:37.970Z,62.70
2022-11-05T16:45:13.658Z,62.64
2022-11-05T16:47:42.728Z,62.28
2022-11-05T16:50:23.958Z,63.33
2022-11-05T16:52:52.784Z,63.08
2022-11-05T16:55:21.474Z,62.68
2022-11-05T16:57:52.349Z,62.94
2022-11-05T17:00:23.225Z,62.99
2022-11-05T17:02:52.035Z,62.94
2022-11-05T17:05:23.251Z,63.14
2022-11-05T17:07:51.817Z,62.45
2022-11-05T17:10:20.445Z,62.90
2022-11-05T17:12:49.075Z,63.72
2022-11-05T17:15:22.317Z,63.62
2022-11-05T17:17:50.868Z,63.25
2022-11-05T17:20:39.431Z,64.02
2022-11-05T17:23:10.204Z,63.03
2022-11-05T17:25:39.000Z,63.16
2022-11-05T17:28:10.988Z,63.71
2022-11-05T17:30:41.945Z,63.21
2022-11-05T17:33:11.304Z,63.62
2022-11-05T17:35:40.430Z,63.93
2022-11-05T17:38:08.655Z,64.31
2022-11-05T17:40:37.759Z,64.83
2022-11-05T17:43:07.318Z,64.21
2022-11-05T17:45:36.084Z,63.56
2022-11-05T17:48:05.877Z,63.66
2022-11-05T17:50:33.821Z,63.83
2022-11-05T17:53:02.248Z,63.69
2022-11-05T17:55:30.223Z,63.46
2022-11-05T17:57:58.404Z,63.48
2022-11-05T18:00:26.414Z,63.33
2022-11-05T18:02:55.058Z,63.18
2022-11-05T18:05:27.855Z,62.92
2022-11-05T18:07:56.517Z,63.53
2022-11-05T18:10:25.470Z,63.57
2022-11-05T18:12:53.547Z,64.78
2022-11-05T18:15:21.546Z,65.49
2022-11-05T18:17:49.850Z,64.65
2022-11-05T18:20:19.661Z,65.13
2022-11-05T18:22:51.847Z,64.66
2022-11-05T18:25:19.967Z,64.52
2022-11-05T18:27:48.095Z,64.75
2022-11-05T18:30:16.131Z,63.72
2022-11-05T18:32:44.806Z,63.88
2022-11-05T18:35:13.243Z,63.58
2022-11-05T18:37:42.034Z,63.26
2022-11-05T18:40:12.544Z,63.33
2022-11-05T18:42:40.834Z,63.22
2022-11-05T18:45:10.497Z,63.67
2022-11-05T18:47:38.637Z,63.88
2022-11-05T18:50:09.315Z,63.62
2022-11-05T18:52:37.544Z,63.49
2022-11-05T18:55:06.312Z,63.81
2022-11-05T18:57:36.029Z,63.19
2022-11-05T19:00:05.226Z,63.61
2022-11-05T19:02:33.721Z,62.61
2022-11-05T19:07:50.010Z,63.37
2022-11-05T19:10:19.211Z,63.86
2022-11-05T19:12:48.592Z,64.02
2022-11-05T19:15:16.646Z,64.29
2022-11-05T19:17:45.431Z,63.94
2022-11-05T19:20:13.557Z,64.04
2022-11-05T19:22:41.574Z,65.00
2022-11-05T19:25:09.610Z,63.53
2022-11-05T19:27:38.618Z,63.30
2022-11-05T19:30:09.043Z,64.32
2022-11-05T19:32:37.203Z,63.97
2022-11-05T19:35:07.760Z,63.67
2022-11-05T19:37:35.756Z,64.05
2022-11-05T19:40:03.696Z,64.55
2022-11-05T19:42:31.650Z,64.67
2022-11-05T19:45:16.745Z,64.11
2022-11-05T19:47:49.197Z,64.30
2022-11-05T19:50:17.962Z,63.80
2022-11-05T19:52:45.953Z,63.72
2022-11-05T19:55:14.093Z,62.91
2022-11-05T19:57:42.077Z,63.92
2022-11-05T20:00:11.171Z,64.57
2022-11-05T20:02:39.179Z,63.73
2022-11-05T20:05:09.276Z,64.69
2022-11-05T20:07:37.662Z,64.41
2022-11-05T20:10:06.624Z,64.74
2022-11-05T20:12:35.365Z,64.54
2022-11-05T20:15:03.675Z,64.38
2022-11-05T20:17:32.135Z,63.59
2022-11-05T20:20:00.623Z,63.35
2022-11-05T20:22:29.967Z,63.91
2022-11-05T20:24:58.033Z,64.52
2022-11-05T20:27:26.105Z,64.79
2022-11-05T20:29:54.000Z,64.08
2022-11-05T20:32:22.261Z,63.71
2022-11-05T20:34:53.256Z,63.29
2022-11-05T20:37:21.229Z,63.46
2022-11-05T20:39:50.470Z,64.15
2022-11-05T20:42:18.832Z,63.67
2022-11-05T20:44:46.870Z,63.52
2022-11-05T20:47:14.896Z,64.23
2022-11-05T20:49:43.026Z,64.22
2022-11-05T20:52:12.198Z,64.28
2022-11-05T20:54:40.120Z,63.38
2022-11-05T20:57:10.782Z,62.98
2022-11-05T20:59:38.789Z,62.58
2022-11-05T21:02:06.909Z,63.31
2022-11-05T21:04:34.999Z,64.14
2022-11-05T21:07:02.997Z,63.74
2022-11-05T21:09:31.110Z,64.11
2022-11-05T21:12:11.224Z,64.17
2022-11-05T21:14:41.884Z,65.78
2022-11-05T21:17:12.266Z,64.97
2022-11-05T21:19:40.518Z,64.34
2022-11-05T21:22:08.718Z,64.42
2022-11-05T21:24:36.939Z,64.30
2022-11-05T21:27:05.268Z,65.08
2022-11-05T21:29:33.241Z,64.89
2022-11-05T21:32:02.856Z,64.65
2022-11-05T21:34:30.995Z,64.06
2022-11-05T21:36:59.029Z,63.14
2022-11-05T21:39:27.737Z,63.64
2022-11-05T21:41:57.361Z,63.63
2022-11-05T21:44:25.647Z,63.58
2022-11-05T21:46:57.512Z,64.19
2022-11-05T21:49:27.090Z,64.58
2022-11-05T21:52:27.496Z,63.83
2022-11-05T21:55:13.353Z,64.02
2022-11-05T21:57:59.642Z,63.41
2022-11-05T22:00:27.672Z,63.15
2022-11-05T22:02:55.779Z,63.60
2022-11-05T22:05:25.442Z,64.19
2022-11-05T22:07:53.845Z,63.59
2022-11-05T22:10:22.248Z,63.66
2022-11-05T22:12:50.286Z,64.54
2022-11-05T22:15:18.270Z,64.53
2022-11-05T22:17:47.467Z,64.28
2022-11-05T22:20:16.318Z,63.30
2022-11-05T22:22:46.726Z,62.86
2022-11-05T22:25:15.260Z,63.10
2022-11-05T22:27:44.008Z,62.72
2022-11-05T22:30:13.698Z,63.49
2022-11-05T22:32:41.665Z,64.10
2022-11-05T22:35:10.503Z,64.62
2022-11-05T22:37:38.499Z,63.79
2022-11-05T22:40:09.687Z,63.45
2022-11-05T22:42:38.369Z,63.82
2022-11-05T22:45:07.448Z,63.06
2022-11-05T22:47:35.498Z,63.17
2022-11-05T22:50:03.515Z,63.27
2022-11-05T22:52:32.717Z,63.28
2022-11-05T22:55:02.614Z,63.19
2022-11-05T22:57:32.013Z,64.14
2022-11-05T23:00:00.363Z,64.33
2022-11-05T23:02:28.520Z,63.79
2022-11-05T23:04:56.766Z,64.84
2022-11-05T23:07:42.199Z,64.42
2022-11-05T23:10:27.949Z,64.86
2022-11-05T23:12:57.252Z,64.14
2022-11-05T23:15:42.909Z,63.98
2022-11-05T23:18:29.380Z,63.36
2022-11-05T23:21:19.186Z,63.80
2022-11-05T23:24:06.005Z,63.46
2022-11-05T23:26:54.046Z,63.24
2022-11-05T23:29:25.444Z,63.50
2022-11-05T23:32:11.744Z,64.03
2022-11-05T23:34:40.023Z,64.40
2022-11-05T23:37:25.713Z,63.80
2022-11-05T23:39:53.804Z,63.90
2022-11-05T23:42:40.146Z,63.79
2022-11-05T23:45:28.766Z,63.17
2022-11-05T23:48:14.532Z,63.29
2022-11-05T23:50:44.733Z,64.25
2022-11-05T23:53:12.859Z,64.37
2022-11-05T23:55:40.937Z,64.14
2022-11-05T23:58:09.529Z,63.48
